Time;durP1;ratioP1;P1;durP2;ratioP2;P2;SDS_P1;SDS_P2;PMS_P1;PMS_P2;Temp;Humidity;BMP_temperature;BMP_pressure;BME280_temperature;BME280_humidity;BME280_pressure;Samples;Min_cycle;Max_cycle;Signal;HPM_P1;HPM_P2
2022/09/21 00:01:18;;;;;;;7.18;2.42;;;4.90;97.60;;;;;;5028632;28;20394;-69
2022/09/21 00:03:44;;;;;;;5.65;3.10;;;4.90;97.60;;;;;;5031231;28;20094;-68
2022/09/21 00:06:16;;;;;;;8.18;3.10;;;4.90;97.60;;;;;;5022197;28;20687;-71
2022/09/21 00:08:42;;;;;;;6.78;2.45;;;4.90;97.60;;;;;;5006037;28;20392;-69
2022/09/21 00:11:13;;;;;;;8.48;2.95;;;4.80;97.60;;;;;;5031182;28;20033;-69
2022/09/21 00:13:39;;;;;;;10.82;3.53;;;4.80;97.60;;;;;;5046907;28;20037;-69
2022/09/21 00:16:06;;;;;;;7.55;3.03;;;4.80;97.60;;;;;;5027991;28;20044;-69
2022/09/21 00:18:32;;;;;;;8.32;3.17;;;4.80;97.60;;;;;;5033501;28;20462;-69
2022/09/21 00:20:58;;;;;;;7.20;3.17;;;4.80;97.60;;;;;;5032248;28;20025;-69
2022/09/21 00:23:23;;;;;;;12.15;2.95;;;4.70;97.70;;;;;;5030340;28;20041;-70
2022/09/21 00:25:49;;;;;;;7.95;3.20;;;4.70;97.60;;;;;;5026431;28;20536;-70
2022/09/21 00:28:14;;;;;;;7.85;2.97;;;4.70;97.60;;;;;;5030359;28;20033;-69
2022/09/21 00:30:40;;;;;;;7.45;2.75;;;4.70;97.60;;;;;;5025867;28;20044;-69
2022/09/21 00:33:06;;;;;;;11.98;3.20;;;4.70;97.70;;;;;;5034370;28;20101;-68
2022/09/21 00:35:32;;;;;;;6.07;2.58;;;4.70;97.70;;;;;;5032731;28;20033;-69
2022/09/21 00:38:02;;;;;;;9.93;2.85;;;4.60;97.70;;;;;;5029455;28;20114;-69
2022/09/21 00:40:28;;;;;;;8.65;3.10;;;4.60;97.70;;;;;;5027401;28;20044;-68
2022/09/21 00:42:53;;;;;;;5.60;2.50;;;4.60;97.70;;;;;;5032264;28;20041;-68
2022/09/21 00:45:21;;;;;;;11.93;3.45;;;4.60;97.70;;;;;;5031305;28;20056;-69
2022/09/21 00:47:50;;;;;;;9.48;2.83;;;4.60;97.70;;;;;;5035090;28;20032;-68
2022/09/21 00:50:20;;;;;;;10.80;2.90;;;4.50;97.70;;;;;;5029915;28;20041;-69
2022/09/21 00:52:52;;;;;;;8.68;2.65;;;4.60;97.80;;;;;;5021017;28;20035;-70
2022/09/21 00:55:40;;;;;;;9.25;3.25;;;4.60;97.80;;;;;;5029191;28;20381;-69
2022/09/21 00:58:10;;;;;;;5.97;2.25;;;4.60;97.90;;;;;;5026588;28;20029;-69
2022/09/21 01:00:36;;;;;;;5.87;2.60;;;4.50;97.80;;;;;;5029031;28;20124;-68
2022/09/21 01:03:03;;;;;;;8.95;2.83;;;4.50;97.70;;;;;;5030465;28;20108;-68
2022/09/21 01:05:29;;;;;;;4.93;2.53;;;4.40;97.80;;;;;;5030809;28;20414;-68
2022/09/21 01:07:58;;;;;;;5.78;2.22;;;4.40;97.80;;;;;;5030083;28;20076;-69
2022/09/21 01:10:26;;;;;;;9.77;2.97;;;4.40;97.80;;;;;;5027698;28;20029;-68
2022/09/21 01:12:51;;;;;;;6.85;2.85;;;4.40;97.80;;;;;;5030256;28;20036;-68
2022/09/21 01:15:46;;;;;;;7.20;2.40;;;4.40;97.90;;;;;;5029222;28;20037;-69
2022/09/21 01:18:25;;;;;;;9.73;2.92;;;4.40;97.90;;;;;;5031464;28;20037;-69
2022/09/21 01:21:37;;;;;;;8.65;2.58;;;4.40;97.90;;;;;;5029896;28;20366;-69
2022/09/21 01:24:13;;;;;;;7.55;2.88;;;4.40;97.90;;;;;;5006006;28;20096;-68
2022/09/21 01:26:47;;;;;;;8.77;3.25;;;4.40;97.80;;;;;;5019530;28;20037;-69
2022/09/21 01:29:26;;;;;;;6.72;2.70;;;4.40;97.90;;;;;;5030816;28;20633;-68
2022/09/21 01:32:08;;;;;;;8.27;3.17;;;4.40;97.90;;;;;;5030494;28;20025;-69
2022/09/21 01:34:48;;;;;;;6.28;2.88;;;4.30;97.90;;;;;;5026332;28;20049;-68
2022/09/21 01:37:21;;;;;;;7.50;3.30;;;4.30;97.90;;;;;;5029997;28;20026;-69
2022/09/21 01:39:51;;;;;;;8.02;3.53;;;4.30;97.90;;;;;;5031171;28;20120;-69
2022/09/21 01:42:20;;;;;;;11.88;3.28;;;4.20;97.90;;;;;;5023377;28;20386;-69
2022/09/21 01:44:48;;;;;;;8.35;3.47;;;4.20;97.90;;;;;;5032440;28;20508;-68
2022/09/21 01:47:15;;;;;;;6.65;3.03;;;4.20;97.90;;;;;;5031210;28;20037;-68
2022/09/21 01:49:46;;;;;;;6.70;3.13;;;4.20;98.00;;;;;;5026571;28;20041;-69
2022/09/21 01:52:22;;;;;;;11.27;3.55;;;4.20;97.90;;;;;;5030455;28;20040;-69
2022/09/21 01:54:53;;;;;;;11.27;3.22;;;4.20;97.80;;;;;;5026346;28;20040;-68
2022/09/21 01:57:31;;;;;;;9.27;3.58;;;4.10;97.90;;;;;;5024890;28;20022;-69
2022/09/21 01:59:58;;;;;;;11.57;3.90;;;4.10;97.90;;;;;;5030690;28;20075;-68
2022/09/21 02:02:47;;;;;;;7.47;3.50;;;4.10;97.90;;;;;;5027089;28;20037;-69
2022/09/21 02:05:16;;;;;;;9.77;3.30;;;4.10;97.90;;;;;;5015725;28;20100;-70
2022/09/21 02:07:42;;;;;;;10.15;3.20;;;4.10;97.90;;;;;;5029392;28;20108;-69
2022/09/21 02:10:17;;;;;;;8.93;3.17;;;4.10;97.90;;;;;;5029946;28;20055;-68
2022/09/21 02:12:42;;;;;;;9.98;3.50;;;4.10;98.00;;;;;;5027057;28;20087;-69
2022/09/21 02:15:12;;;;;;;12.02;3.70;;;4.10;98.00;;;;;;5027901;28;20488;-70
2022/09/21 02:18:04;;;;;;;12.20;3.53;;;4.10;98.00;;;;;;5028832;28;20064;-69
2022/09/21 02:20:37;;;;;;;11.88;3.22;;;4.10;98.00;;;;;;5029637;28;20036;-70
2022/09/21 02:23:13;;;;;;;10.25;4.20;;;4.10;98.00;;;;;;5029366;28;20075;-69
2022/09/21 02:25:46;;;;;;;9.63;3.88;;;4.10;98.00;;;;;;5018547;28;20056;-68
2022/09/21 02:28:52;;;;;;;8.45;3.35;;;4.10;98.10;;;;;;5029761;28;20064;-70
2022/09/21 02:31:28;;;;;;;10.18;3.45;;;4.10;98.20;;;;;;5028643;28;20025;-68
2022/09/21 02:34:09;;;;;;;13.52;4.07;;;4.10;98.10;;;;;;5028844;28;20029;-68
2022/09/21 02:36:52;;;;;;;8.38;3.72;;;4.10;98.00;;;;;;5031987;28;20077;-69
2022/09/21 02:39:25;;;;;;;7.50;3.60;;;4.10;98.10;;;;;;5026068;28;20064;-69
2022/09/21 02:42:09;;;;;;;10.27;3.90;;;4.10;98.20;;;;;;5029460;28;20504;-68
2022/09/21 02:44:44;;;;;;;7.65;3.78;;;4.10;98.10;;;;;;5022583;28;20053;-68
2022/09/21 02:47:18;;;;;;;14.93;3.88;;;4.10;98.20;;;;;;5030011;28;20029;-69
2022/09/21 02:49:52;;;;;;;12.68;3.65;;;4.10;98.20;;;;;;5028361;28;20034;-69
2022/09/21 02:52:20;;;;;;;9.82;3.88;;;4.10;98.20;;;;;;5030772;28;20025;-68
2022/09/21 02:54:49;;;;;;;13.27;3.65;;;4.00;98.20;;;;;;5025180;28;20108;-70
2022/09/21 02:57:17;;;;;;;13.35;4.10;;;4.00;98.20;;;;;;5016201;28;20029;-69
2022/09/21 02:59:43;;;;;;;13.32;4.03;;;4.00;98.30;;;;;;5024831;28;20037;-69
2022/09/21 03:02:11;;;;;;;11.68;4.25;;;4.00;98.20;;;;;;5031453;28;20114;-69
2022/09/21 03:04:39;;;;;;;9.45;4.20;;;3.90;98.20;;;;;;5035312;28;20025;-69
2022/09/21 03:07:04;;;;;;;11.95;4.13;;;3.90;98.20;;;;;;5033601;28;20144;-69
2022/09/21 03:09:30;;;;;;;15.05;4.43;;;3.80;98.10;;;;;;5034260;28;20041;-70
2022/09/21 03:11:55;;;;;;;12.60;3.97;;;3.80;98.20;;;;;;5034754;28;20080;-69
2022/09/21 03:14:21;;;;;;;9.93;3.83;;;3.80;98.30;;;;;;5035521;28;20382;-69
2022/09/21 03:16:47;;;;;;;12.77;3.95;;;3.80;98.20;;;;;;5035006;28;20028;-68
2022/09/21 03:19:13;;;;;;;11.07;3.88;;;3.80;98.20;;;;;;5034356;28;20041;-68
2022/09/21 03:21:38;;;;;;;15.23;4.20;;;3.80;98.20;;;;;;5036661;28;20053;-68
2022/09/21 03:24:04;;;;;;;8.15;3.78;;;3.70;98.20;;;;;;5036770;28;20065;-69
2022/09/21 03:26:29;;;;;;;13.38;4.00;;;3.70;98.20;;;;;;5030779;28;20026;-68
2022/09/21 03:28:55;;;;;;;11.32;3.90;;;3.70;98.20;;;;;;5042881;28;20046;-68
2022/09/21 03:31:21;;;;;;;10.02;3.85;;;3.70;98.20;;;;;;5016600;28;20040;-69
2022/09/21 03:33:46;;;;;;;7.90;3.45;;;3.70;98.20;;;;;;5034041;28;20052;-69
2022/09/21 03:36:12;;;;;;;11.13;3.75;;;3.70;98.20;;;;;;5036080;28;20040;-69
2022/09/21 03:38:38;;;;;;;9.75;4.60;;;3.70;98.20;;;;;;5029182;28;20362;-69
2022/09/21 03:41:04;;;;;;;13.15;4.50;;;3.60;98.20;;;;;;5035173;28;20083;-69
2022/09/21 03:43:30;;;;;;;12.25;4.38;;;3.60;98.20;;;;;;5035129;28;20025;-69
2022/09/21 03:45:56;;;;;;;13.00;4.40;;;3.70;98.30;;;;;;5033352;28;20037;-69
2022/09/21 03:48:22;;;;;;;10.43;3.95;;;3.80;98.20;;;;;;5033546;28;20022;-69
2022/09/21 03:50:48;;;;;;;12.05;4.88;;;3.80;98.30;;;;;;5034028;28;20056;-68
2022/09/21 03:53:14;;;;;;;11.07;5.22;;;3.80;98.20;;;;;;5031611;28;20059;-69
2022/09/21 03:55:40;;;;;;;11.75;5.38;;;3.80;98.20;;;;;;5034696;28;20136;-69
2022/09/21 03:58:05;;;;;;;17.27;5.15;;;3.70;98.20;;;;;;5034914;28;20036;-69
2022/09/21 04:00:32;;;;;;;16.05;5.25;;;3.70;98.20;;;;;;5032142;28;20119;-69
2022/09/21 04:02:57;;;;;;;9.63;4.70;;;3.80;98.30;;;;;;5029198;28;20028;-69
2022/09/21 04:05:23;;;;;;;13.80;5.18;;;3.80;98.20;;;;;;5032207;28;20037;-69
2022/09/21 04:07:49;;;;;;;12.15;5.20;;;3.80;98.20;;;;;;5026626;28;20438;-69
2022/09/21 04:10:20;;;;;;;15.32;6.07;;;3.80;98.20;;;;;;5031488;28;20030;-70
2022/09/21 04:12:46;;;;;;;15.63;5.50;;;3.80;98.30;;;;;;5035198;28;20425;-69
2022/09/21 04:15:18;;;;;;;20.63;6.38;;;3.80;98.20;;;;;;5034572;28;20038;-70
2022/09/21 04:17:44;;;;;;;15.85;6.63;;;3.70;98.20;;;;;;5033787;28;20029;-69
2022/09/21 04:20:10;;;;;;;14.15;6.47;;;3.80;98.30;;;;;;5034591;28;20095;-69
2022/09/21 04:22:36;;;;;;;17.92;6.10;;;3.80;98.40;;;;;;5021173;28;20053;-71
2022/09/21 04:25:06;;;;;;;15.00;6.72;;;3.80;98.40;;;;;;5028098;28;20033;-69
2022/09/21 04:27:31;;;;;;;15.18;6.50;;;3.80;98.40;;;;;;5033385;28;20439;-70
2022/09/21 04:29:58;;;;;;;12.70;5.53;;;3.80;98.40;;;;;;5032085;28;20041;-67
2022/09/21 04:32:23;;;;;;;13.07;5.32;;;3.70;98.30;;;;;;5028024;28;20087;-69
2022/09/21 04:34:49;;;;;;;10.38;5.22;;;3.70;98.30;;;;;;5032137;28;20041;-69
2022/09/21 04:37:15;;;;;;;14.65;5.82;;;3.70;98.30;;;;;;5032752;28;20029;-68
2022/09/21 04:39:40;;;;;;;13.00;5.57;;;3.60;98.20;;;;;;5026529;28;20029;-68
2022/09/21 04:42:06;;;;;;;13.68;5.97;;;3.60;98.30;;;;;;5031537;28;20040;-69
2022/09/21 04:44:31;;;;;;;13.65;5.95;;;3.50;98.30;;;;;;5028094;28;20041;-68
2022/09/21 04:46:57;;;;;;;14.60;4.60;;;3.50;98.30;;;;;;5030636;28;20037;-69
2022/09/21 04:49:23;;;;;;;16.88;5.43;;;3.50;98.40;;;;;;5030614;28;21834;-68
2022/09/21 04:51:48;;;;;;;17.25;5.60;;;3.50;98.30;;;;;;5028051;28;20021;-68
2022/09/21 04:54:14;;;;;;;16.80;6.03;;;3.40;98.30;;;;;;5030685;28;20045;-68
2022/09/21 04:56:40;;;;;;;14.25;5.55;;;3.40;98.30;;;;;;5026645;28;20363;-68
2022/09/21 04:59:05;;;;;;;10.63;5.25;;;3.40;98.30;;;;;;5031866;28;20038;-68
2022/09/21 05:01:31;;;;;;;19.40;5.53;;;3.40;98.40;;;;;;5023705;28;20044;-69
2022/09/21 05:04:01;;;;;;;16.23;6.10;;;3.40;98.30;;;;;;5027705;28;20061;-68
2022/09/21 05:06:31;;;;;;;16.87;5.50;;;3.40;98.30;;;;;;5027764;28;20036;-68
2022/09/21 05:11:41;;;;;;;14.68;5.68;;;3.40;98.30;;;;;;5021999;28;20464;-68
2022/09/21 05:14:07;;;;;;;13.55;5.47;;;3.40;98.30;;;;;;5022866;28;20097;-69
2022/09/21 05:16:32;;;;;;;12.45;6.07;;;3.40;98.40;;;;;;5025173;28;20058;-68
2022/09/21 05:18:58;;;;;;;16.00;5.80;;;3.40;98.30;;;;;;5027894;28;20042;-69
2022/09/21 05:21:23;;;;;;;14.68;6.05;;;3.40;98.30;;;;;;5028811;28;20410;-68
2022/09/21 05:23:49;;;;;;;17.85;6.55;;;3.40;98.30;;;;;;5028565;28;20034;-69
2022/09/21 05:26:14;;;;;;;19.95;6.03;;;3.40;98.30;;;;;;5026010;28;20030;-69
2022/09/21 05:28:40;;;;;;;18.20;6.57;;;3.40;98.30;;;;;;5026540;28;20038;-71
2022/09/21 05:31:16;;;;;;;14.35;6.45;;;3.40;98.30;;;;;;5018832;28;20486;-70
2022/09/21 05:33:50;;;;;;;16.77;6.75;;;3.50;98.30;;;;;;5023969;28;20398;-68
2022/09/21 05:36:34;;;;;;;15.18;6.13;;;3.40;98.30;;;;;;5032652;28;20032;-68
2022/09/21 05:39:00;;;;;;;13.40;6.65;;;3.50;98.30;;;;;;5023390;28;20056;-68
2022/09/21 05:41:26;;;;;;;19.58;6.68;;;3.50;98.40;;;;;;5024670;28;20053;-68
2022/09/21 05:43:52;;;;;;;13.10;6.10;;;3.50;98.40;;;;;;5028574;28;20030;-69
2022/09/21 05:46:47;;;;;;;15.88;6.30;;;3.60;98.40;;;;;;5027961;28;20616;-68
2022/09/21 05:49:16;;;;;;;12.77;5.80;;;3.60;98.30;;;;;;5027427;28;20468;-74
2022/09/21 05:52:00;;;;;;;13.68;6.50;;;3.60;98.40;;;;;;5019782;28;20030;-69
2022/09/21 05:54:26;;;;;;;12.95;6.43;;;3.60;98.30;;;;;;5017414;28;20034;-69
2022/09/21 05:57:13;;;;;;;20.08;7.68;;;3.70;98.40;;;;;;5033833;28;20109;-69
2022/09/21 06:00:01;;;;;;;14.52;6.43;;;3.80;98.50;;;;;;5031552;28;20029;-69
2022/09/21 06:02:45;;;;;;;19.90;6.43;;;3.80;98.40;;;;;;5026543;28;20076;-69
2022/09/21 06:05:12;;;;;;;15.30;5.93;;;3.90;98.40;;;;;;5031492;28;20033;-70
2022/09/21 06:07:38;;;;;;;20.75;7.47;;;4.00;98.40;;;;;;5026139;28;20034;-69
2022/09/21 06:10:04;;;;;;;17.25;7.20;;;4.10;98.60;;;;;;5028125;28;20457;-70
2022/09/21 06:12:29;;;;;;;17.33;7.65;;;4.20;98.60;;;;;;5025259;28;20044;-69
2022/09/21 06:14:55;;;;;;;20.67;7.60;;;4.30;98.70;;;;;;5031092;28;20044;-69
2022/09/21 06:17:21;;;;;;;17.40;8.07;;;4.30;98.60;;;;;;5030496;28;20040;-69
2022/09/21 06:19:47;;;;;;;19.27;8.70;;;4.40;98.70;;;;;;5028196;28;20024;-69
2022/09/21 06:22:12;;;;;;;19.55;7.68;;;4.50;98.60;;;;;;5029965;28;20505;-69
2022/09/21 06:24:37;;;;;;;17.70;7.45;;;4.50;98.60;;;;;;5026430;28;20055;-69
2022/09/21 06:27:03;;;;;;;17.25;7.00;;;4.60;98.60;;;;;;5030480;28;20531;-69
2022/09/21 06:29:29;;;;;;;16.23;7.15;;;4.60;98.70;;;;;;5025095;28;20029;-69
2022/09/21 06:31:54;;;;;;;19.23;7.45;;;4.70;98.70;;;;;;5028150;28;20032;-69
2022/09/21 06:34:20;;;;;;;22.83;8.90;;;4.80;98.80;;;;;;5024824;28;20041;-70
2022/09/21 06:36:45;;;;;;;32.60;9.88;;;4.80;98.80;;;;;;5028269;28;20034;-69
2022/09/21 06:39:11;;;;;;;26.67;10.13;;;5.10;99.10;;;;;;5029354;28;20036;-69
2022/09/21 06:41:37;;;;;;;24.92;9.88;;;5.40;99.20;;;;;;5036319;28;20564;-70
2022/09/21 06:44:02;;;;;;;35.15;11.13;;;5.60;99.10;;;;;;5026677;28;20382;-72
2022/09/21 06:46:28;;;;;;;26.85;10.95;;;5.60;99.10;;;;;;5025150;28;20037;-69
2022/09/21 06:48:53;;;;;;;41.53;12.05;;;5.70;99.10;;;;;;5025198;28;20037;-70
2022/09/21 06:51:20;;;;;;;29.30;10.75;;;5.80;99.00;;;;;;5020627;28;20030;-70
2022/09/21 06:53:46;;;;;;;23.95;10.88;;;5.90;99.10;;;;;;5023007;28;20053;-70
2022/09/21 06:56:12;;;;;;;31.23;12.40;;;5.90;99.10;;;;;;5026841;28;20079;-70
2022/09/21 06:58:38;;;;;;;30.60;11.52;;;6.00;99.10;;;;;;5028611;28;20029;-70
2022/09/21 07:01:08;;;;;;;34.15;12.10;;;6.10;99.10;;;;;;5024240;28;20442;-70
2022/09/21 07:03:34;;;;;;;37.03;11.93;;;6.20;99.20;;;;;;5026888;28;20448;-69
2022/09/21 07:05:59;;;;;;;29.88;12.10;;;6.20;99.20;;;;;;5016162;28;20041;-70
2022/09/21 07:08:25;;;;;;;32.00;12.25;;;6.30;99.20;;;;;;5029725;28;20036;-70
2022/09/21 07:10:51;;;;;;;32.65;13.82;;;6.40;99.30;;;;;;5031926;28;20488;-70
2022/09/21 07:13:17;;;;;;;34.08;13.73;;;6.60;99.40;;;;;;5031788;28;20033;-69
2022/09/21 07:15:43;;;;;;;38.22;12.70;;;6.70;99.40;;;;;;5023981;28;20037;-70
2022/09/21 07:18:12;;;;;;;33.67;13.88;;;6.70;99.40;;;;;;5030757;28;20079;-70
2022/09/21 07:20:39;;;;;;;40.50;13.95;;;6.80;99.40;;;;;;5030030;28;20155;-70
2022/09/21 07:23:15;;;;;;;34.90;14.32;;;7.00;99.50;;;;;;5029880;28;20460;-69
2022/09/21 07:25:42;;;;;;;41.63;13.95;;;7.00;99.40;;;;;;5030265;28;20029;-70
2022/09/21 07:28:09;;;;;;;53.28;14.88;;;7.10;99.40;;;;;;5027213;28;20025;-70
2022/09/21 07:30:36;;;;;;;41.17;14.70;;;7.20;99.40;;;;;;5031579;28;20323;-69
2022/09/21 07:33:02;;;;;;;37.63;15.38;;;7.30;99.50;;;;;;5027741;28;20037;-70
2022/09/21 07:35:27;;;;;;;37.38;15.68;;;7.50;99.60;;;;;;5029198;28;20045;-70
2022/09/21 07:37:55;;;;;;;41.78;15.25;;;7.50;99.50;;;;;;5029160;28;20038;-70
2022/09/21 07:40:21;;;;;;;42.10;15.88;;;7.50;99.40;;;;;;5030597;28;20485;-70
2022/09/21 07:42:47;;;;;;;44.78;16.20;;;7.60;99.60;;;;;;5030609;28;20100;-70
2022/09/21 07:45:12;;;;;;;50.35;16.23;;;7.80;99.60;;;;;;5029261;28;20056;-70
2022/09/21 07:47:38;;;;;;;49.25;16.02;;;8.00;99.70;;;;;;5024514;28;20062;-70
2022/09/21 07:50:03;;;;;;;44.50;16.23;;;8.10;99.70;;;;;;5023190;28;20099;-70
2022/09/21 07:52:29;;;;;;;53.40;17.17;;;8.20;99.50;;;;;;5032430;28;20043;-70
2022/09/21 07:54:54;;;;;;;51.60;18.20;;;8.50;99.70;;;;;;5031554;28;20115;-69
2022/09/21 08:00:15;;;;;;;48.83;16.35;;;8.60;99.50;;;;;;4991073;28;20035;-70
2022/09/21 08:02:40;;;;;;;49.17;16.85;;;9.00;99.70;;;;;;5022337;28;20389;-70
2022/09/21 08:05:06;;;;;;;50.03;18.85;;;9.10;99.50;;;;;;5034408;28;20045;-71
2022/09/21 08:07:32;;;;;;;52.92;18.30;;;9.40;99.60;;;;;;5034378;28;20045;-70
2022/09/21 08:09:57;;;;;;;56.42;19.40;;;9.60;99.50;;;;;;5033516;28;20473;-70
2022/09/21 08:12:23;;;;;;;45.30;20.55;;;9.80;99.30;;;;;;5034297;28;20029;-70
2022/09/21 08:14:48;;;;;;;44.30;18.70;;;10.00;99.20;;;;;;5032120;28;20041;-70
2022/09/21 08:17:14;;;;;;;44.67;19.13;;;10.20;99.00;;;;;;5036219;28;20056;-70
2022/09/21 08:19:40;;;;;;;51.17;19.27;;;10.40;98.50;;;;;;5040659;28;20147;-70
2022/09/21 08:22:05;;;;;;;52.83;19.50;;;10.60;98.30;;;;;;5034141;28;20049;-70
2022/09/21 08:24:31;;;;;;;47.47;18.15;;;10.80;97.60;;;;;;5028715;28;20120;-70
2022/09/21 08:26:57;;;;;;;36.70;17.00;;;11.10;97.10;;;;;;5028710;28;20061;-71
2022/09/21 08:29:24;;;;;;;45.13;17.70;;;11.30;96.10;;;;;;5032301;28;20037;-70
2022/09/21 08:31:51;;;;;;;36.70;16.85;;;11.50;95.30;;;;;;5031558;28;20116;-70
2022/09/21 08:34:18;;;;;;;30.80;14.52;;;11.60;94.40;;;;;;5032945;28;20116;-70
2022/09/21 08:36:44;;;;;;;35.67;15.10;;;11.80;93.90;;;;;;5033891;28;20478;-70
2022/09/21 08:39:10;;;;;;;36.15;13.35;;;12.10;94.30;;;;;;5029282;28;20458;-70
2022/09/21 08:41:39;;;;;;;33.65;12.25;;;12.30;93.80;;;;;;5032520;28;20030;-70
2022/09/21 08:44:18;;;;;;;25.23;11.88;;;12.30;92.80;;;;;;5032747;28;20105;-70
2022/09/21 08:46:47;;;;;;;20.65;9.02;;;12.50;92.20;;;;;;5032582;28;20030;-70
2022/09/21 08:49:18;;;;;;;19.13;7.70;;;12.60;91.00;;;;;;5026446;28;20025;-71
2022/09/21 08:51:57;;;;;;;16.92;6.60;;;12.80;90.60;;;;;;5023019;28;20041;-70
2022/09/21 08:54:48;;;;;;;17.35;5.45;;;12.90;89.50;;;;;;5025570;28;20540;-70
2022/09/21 08:57:15;;;;;;;16.77;5.45;;;13.00;88.80;;;;;;5033409;28;20040;-70
2022/09/21 08:59:46;;;;;;;11.50;4.53;;;13.10;87.90;;;;;;5033626;28;20091;-69
2022/09/21 09:02:28;;;;;;;16.48;5.13;;;13.30;88.00;;;;;;5033458;28;20022;-70
2022/09/21 09:05:02;;;;;;;10.05;4.18;;;13.30;87.40;;;;;;5032773;28;20041;-70
2022/09/21 09:07:51;;;;;;;20.85;3.95;;;13.50;87.60;;;;;;5033750;28;20025;-72
2022/09/21 09:10:36;;;;;;;11.73;2.85;;;13.70;87.00;;;;;;5026494;28;20025;-71
2022/09/21 09:13:23;;;;;;;11.07;3.15;;;13.80;86.50;;;;;;5032827;28;20034;-71
2022/09/21 09:16:08;;;;;;;8.98;2.88;;;14.00;86.20;;;;;;5033068;28;20417;-71
2022/09/21 09:18:43;;;;;;;9.15;2.25;;;14.10;85.10;;;;;;5033280;28;20052;-71
2022/09/21 09:21:18;;;;;;;6.68;2.05;;;14.30;84.60;;;;;;5031289;28;20033;-71
2022/09/21 09:24:09;;;;;;;5.57;1.85;;;14.50;84.00;;;;;;5026657;28;20041;-71
2022/09/21 09:26:41;;;;;;;;;;;14.30;82.90;;;;;;5030884;28;20038;-71
2022/09/21 09:29:35;;;;;;;9.27;1.50;;;14.60;82.50;;;;;;5032653;28;19952;-72
2022/09/21 09:32:02;;;;;;;5.47;1.60;;;14.80;81.10;;;;;;5032571;28;20033;-72
2022/09/21 09:34:35;;;;;;;13.02;1.58;;;14.80;81.50;;;;;;5033245;28;20029;-71
2022/09/21 09:37:19;;;;;;;8.88;1.35;;;14.90;81.10;;;;;;5032552;28;20057;-72
2022/09/21 09:39:52;;;;;;;5.47;1.52;;;14.90;81.10;;;;;;5021611;28;20066;-71
2022/09/21 09:42:32;;;;;;;4.40;1.27;;;15.10;79.50;;;;;;5031684;28;20124;-71
2022/09/21 09:45:20;;;;;;;4.22;1.33;;;15.20;78.80;;;;;;5030972;28;20065;-71
2022/09/21 09:48:19;;;;;;;4.68;1.00;;;15.10;77.90;;;;;;5024260;28;20089;-71
2022/09/21 09:50:45;;;;;;;8.32;1.52;;;15.40;78.20;;;;;;5033010;28;20034;-71
2022/09/21 09:53:17;;;;;;;6.90;1.30;;;15.60;78.90;;;;;;5019875;28;20044;-71
2022/09/21 09:55:49;;;;;;;3.83;0.90;;;15.70;76.50;;;;;;5033437;28;20040;-71
2022/09/21 09:58:37;;;;;;;9.05;1.25;;;16.00;76.30;;;;;;5030807;28;20018;-71
2022/09/21 10:01:03;;;;;;;8.80;1.33;;;16.00;76.00;;;;;;5032993;28;20033;-71
2022/09/21 10:03:29;;;;;;;7.10;1.40;;;16.10;74.50;;;;;;5027031;28;20070;-71
2022/09/21 10:05:54;;;;;;;6.47;1.48;;;16.00;75.30;;;;;;5032219;28;20037;-71
2022/09/21 10:08:35;;;;;;;7.18;1.52;;;16.20;76.80;;;;;;5030779;28;20087;-71
2022/09/21 10:11:02;;;;;;;10.38;1.63;;;16.20;74.40;;;;;;5032363;28;20367;-71
2022/09/21 10:13:30;;;;;;;2.00;0.98;;;16.30;73.70;;;;;;5032203;28;20129;-71
2022/09/21 10:16:01;;;;;;;6.85;1.70;;;16.30;73.10;;;;;;5029432;28;20536;-71
2022/09/21 10:18:37;;;;;;;4.40;0.93;;;16.50;72.80;;;;;;5023041;28;20049;-71
2022/09/21 10:21:14;;;;;;;6.18;1.48;;;16.70;72.00;;;;;;5025804;28;20045;-71
2022/09/21 10:23:48;;;;;;;6.38;0.90;;;17.00;72.40;;;;;;5030576;28;20052;-72
2022/09/21 10:26:15;;;;;;;5.15;1.35;;;16.90;69.40;;;;;;5023805;28;20072;-71
2022/09/21 10:28:59;;;;;;;6.55;1.20;;;17.00;69.70;;;;;;5028280;28;20080;-72
2022/09/21 10:31:29;;;;;;;4.35;0.85;;;17.00;67.90;;;;;;5023045;28;20037;-72
2022/09/21 10:34:06;;;;;;;4.43;0.80;;;16.90;67.30;;;;;;5027189;28;20041;-71
2022/09/21 10:36:34;;;;;;;3.35;0.93;;;17.00;66.70;;;;;;5025163;28;20033;-73
2022/09/21 10:39:16;;;;;;;5.13;1.05;;;17.50;69.40;;;;;;5029976;28;20025;-72
2022/09/21 10:41:49;;;;;;;4.57;0.73;;;17.70;67.50;;;;;;5031509;28;20431;-71
2022/09/21 10:44:18;;;;;;;2.72;0.60;;;17.40;62.80;;;;;;5029917;28;20461;-72
2022/09/21 10:46:45;;;;;;;2.80;0.75;;;17.30;63.90;;;;;;5026196;28;20033;-72
2022/09/21 10:49:19;;;;;;;4.40;0.73;;;17.60;65.80;;;;;;5031031;28;20033;-72
2022/09/21 10:51:46;;;;;;;2.28;0.75;;;18.00;63.50;;;;;;5031489;28;20037;-72
2022/09/21 10:54:18;;;;;;;3.92;0.60;;;18.10;63.10;;;;;;5029460;28;20035;-73
2022/09/21 10:56:52;;;;;;;3.15;0.70;;;18.00;60.90;;;;;;5030468;28;20113;-72
2022/09/21 10:59:17;;;;;;;2.95;0.80;;;17.10;63.60;;;;;;5032277;28;20029;-72
2022/09/21 11:01:48;;;;;;;3.67;0.73;;;17.00;63.80;;;;;;5029134;28;20037;-72
2022/09/21 11:04:33;;;;;;;;;;;16.70;66.40;;;;;;5026221;28;20045;-72
2022/09/21 11:07:12;;;;;;;1.80;0.50;;;16.60;66.30;;;;;;5025066;28;20383;-72
2022/09/21 11:10:05;;;;;;;6.05;0.90;;;16.40;66.50;;;;;;5024972;28;20029;-71
2022/09/21 11:12:50;;;;;;;5.25;0.70;;;17.00;63.90;;;;;;5029881;28;20030;-72
2022/09/21 11:15:41;;;;;;;4.53;0.63;;;17.90;64.00;;;;;;5025864;28;20049;-72
2022/09/21 11:18:14;;;;;;;2.55;0.65;;;18.40;60.20;;;;;;5026052;28;20446;-72
2022/09/21 11:21:02;;;;;;;4.93;0.73;;;18.60;58.50;;;;;;5030429;28;20534;-73
2022/09/21 11:23:51;;;;;;;3.13;0.90;;;18.80;57.50;;;;;;5029878;28;20092;-72
2022/09/21 11:26:40;;;;;;;2.55;0.63;;;19.20;54.80;;;;;;5026965;28;20473;-72
2022/09/21 11:29:17;;;;;;;2.97;0.55;;;19.30;54.10;;;;;;5028938;28;20037;-73
2022/09/21 11:31:51;;;;;;;3.60;0.80;;;19.80;55.30;;;;;;5025241;28;20036;-72
2022/09/21 11:34:46;;;;;;;3.55;0.77;;;20.00;53.00;;;;;;5032100;28;20033;-73
2022/09/21 11:37:14;;;;;;;4.25;0.73;;;20.00;50.90;;;;;;5034656;28;20065;-73
2022/09/21 11:40:23;;;;;;;2.60;0.52;;;20.10;51.10;;;;;;5031626;28;20029;-72
2022/09/21 11:43:07;;;;;;;2.05;0.60;;;20.20;52.30;;;;;;4981752;28;20140;-72
2022/09/21 11:46:09;;;;;;;3.08;0.70;;;19.30;52.40;;;;;;5032334;28;20042;-72
2022/09/21 11:49:26;;;;;;;2.85;0.60;;;20.30;52.70;;;;;;5026334;28;20037;-72
2022/09/21 11:51:58;;;;;;;4.03;0.75;;;21.00;50.90;;;;;;5036470;28;20038;-74
2022/09/21 11:54:50;;;;;;;2.08;0.68;;;21.20;50.00;;;;;;5025926;28;20147;-70
2022/09/21 11:57:27;;;;;;;3.15;0.63;;;20.70;48.50;;;;;;5030447;28;20029;-71
2022/09/21 11:59:59;;;;;;;2.55;0.60;;;21.50;52.30;;;;;;5021942;28;20557;-70
2022/09/21 12:02:50;;;;;;;3.88;0.60;;;22.10;48.90;;;;;;5024040;28;20064;-70
2022/09/21 12:05:41;;;;;;;5.60;0.60;;;22.30;51.20;;;;;;5027916;28;20175;-70
2022/09/21 12:08:28;;;;;;;2.20;0.50;;;22.60;45.50;;;;;;5022223;28;20091;-70
2022/09/21 12:11:21;;;;;;;5.43;0.50;;;22.90;49.00;;;;;;5026693;28;20064;-71
2022/09/21 12:14:01;;;;;;;2.70;0.43;;;22.10;49.20;;;;;;5024337;28;20413;-70
2022/09/21 12:16:54;;;;;;;2.30;0.50;;;21.10;50.90;;;;;;5028284;28;20029;-69
2022/09/21 12:19:45;;;;;;;2.33;0.65;;;20.00;52.00;;;;;;5029222;28;20021;-70
2022/09/21 12:22:37;;;;;;;2.50;0.65;;;19.40;57.30;;;;;;5028804;28;20063;-70
2022/09/21 12:25:22;;;;;;;1.42;0.40;;;18.80;56.70;;;;;;5029104;28;20116;-69
2022/09/21 12:27:53;;;;;;;4.72;0.82;;;18.50;59.70;;;;;;5023282;28;20398;-69
2022/09/21 12:30:20;;;;;;;;;;;18.10;59.60;;;;;;5024804;28;20544;-69
2022/09/21 12:33:05;;;;;;;5.28;0.80;;;17.90;59.90;;;;;;5026322;28;19951;-69
2022/09/21 12:35:38;;;;;;;2.17;0.55;;;17.70;60.10;;;;;;5027157;28;20404;-70
2022/09/21 12:38:12;;;;;;;2.17;0.50;;;17.50;61.60;;;;;;5021674;28;20420;-69
2022/09/21 12:40:42;;;;;;;1.35;0.20;;;17.70;60.40;;;;;;5031148;28;20037;-71
2022/09/21 12:43:25;;;;;;;0.85;0.38;;;18.40;57.30;;;;;;5027440;28;20042;-72
2022/09/21 12:45:57;;;;;;;0.75;0.20;;;18.80;57.50;;;;;;5025538;28;20103;-74
2022/09/21 12:48:41;;;;;;;3.13;0.63;;;19.60;52.70;;;;;;5030539;28;20057;-72
2022/09/21 12:51:12;;;;;;;0.57;0.30;;;20.20;45.30;;;;;;5031445;28;20462;-72
2022/09/21 12:53:41;;;;;;;1.75;0.40;;;20.90;40.60;;;;;;5029411;28;20037;-73
2022/09/21 12:56:15;;;;;;;2.13;0.50;;;21.50;46.10;;;;;;5031017;28;20022;-73
2022/09/21 12:58:58;;;;;;;4.75;0.60;;;21.80;43.90;;;;;;5031379;28;20029;-74
2022/09/21 13:01:32;;;;;;;1.52;0.57;;;22.30;46.10;;;;;;5032464;28;20026;-70
2022/09/21 13:04:09;;;;;;;2.63;0.43;;;22.50;42.40;;;;;;5029072;28;20048;-70
2022/09/21 13:07:14;;;;;;;2.58;0.40;;;22.20;43.90;;;;;;5030628;28;20454;-70
2022/09/21 13:09:43;;;;;;;4.07;0.70;;;22.60;41.20;;;;;;5029571;28;20037;-70
2022/09/21 13:12:19;;;;;;;2.03;0.68;;;22.60;42.50;;;;;;5033497;28;20025;-70
2022/09/21 13:14:48;;;;;;;1.40;0.40;;;22.80;40.40;;;;;;5030345;28;20084;-70
2022/09/21 13:17:21;;;;;;;1.25;0.17;;;23.00;42.60;;;;;;5033374;28;20053;-70
2022/09/21 13:20:06;;;;;;;4.18;0.70;;;23.90;40.40;;;;;;5029891;28;20056;-71